Aeroporto :
LOGIN :

Iscrizione | Disclaimer

   EN    FR    IT 

 










Sommario :    VFR   VFR Marginale   IFR   IFR Intensivo   IFR Molto Intensivo
Visibilità : 
Base nubi : 
>= 8 km
>= 3000ft
5 / 8 km
1000 / 3000 ft
1500m / 5 km
500 / 1000 ft
800 / 1500m
200 / 500 ft
< 800m
< 200 ft
Simboli :   Temporali  Nebbia  Neve Forte  Precipitazioni Forti  Vento > 20 kt
SIGMETs :   Varie  Temporali  Ghiacco  Turbolenza  Onda orograficha  Ceneri Vulcaniche







- Altitudine del aeroporto : 1470 ft
- Codice IATA : KLU


LOWK - Klagenfurt

ULTIMO METAR :
  • 241220Z 19004KT 130V250 9999 SCT043 SCT060 BKN280 18/10 Q1014 TEMPO 21010G20KT

METARs OBSOLETI :
  • 241150Z VRB03KT 9999 FEW024 SCT043 BKN060 18/10 Q1014 BECMG 22008KT
  • 241120Z VRB02KT 9999 FEW024 SCT040 BKN055 16/11 Q1014 BECMG 22008KT
  • 241050Z VRB02KT 9999 FEW009 SCT025 BKN055 15/10 Q1014 BECMG 22008KT
  • 241020Z 34003KT 300V040 9999 FEW009 SCT016 BKN055 15/10 Q1014 BECMG 22008KT
  • 240950Z 29003KT 200V340 9999 FEW008 SCT016 BKN050 14/10 Q1015 NOSIG

TAF TAF LOWK
Valido dal 24 a 12 ore il 25 a 12 ore UTC


241115Z 2412/2512 09005KT 9999 SCT050 SCT200 TX22/2512Z TN10/2504Z
TEMPO 2412/2418 22010G20KT FEW050TCU SCT060
BECMG 2418/2421 VRB02KT 6000 SCT010 BKN020
PROB40
TEMPO 2422/2507 3000 BR SCT005 BKN009
BECMG 2508/2510 25008KT 9999 SCT060
Nessun NOTAM noto per questo aeroporto.
1 SIGMET conosciuto per la FIR Wien (LOVV) :
 
Turbolenza severa
LOVV SIGMET 1 VALID 241100/241500 LOWW
LOVV WIEN FIR SEV TURB FCST WI N4738 E01510 - N4718 E01449 - N4650 E00921 - N4714 E00921 - N4738 E01510 SFC/FL140 STNR NC=



MetMap, La meteo Aeronautica in un colpo d'occhio ! - Copyright ORBIFLY Dicembre 2007 - Disclaimer

ORBIFLY MET'MAP TEAM :

Programmazione e sviluppo : Alexandra Zaïnal
Concezione e sviluppo : Baudouin d'Aumeries
Co-Programmazione e sviluppo : Marc-Olivier Méhu
Supporto tecnico e logistico : Manuel Goepfert
Aiuto per la traduzione : Arnaldo La Scala

Contatto : metmap@orbifly.com




FONTI E CREDITI :

   NOAA